sensor_id;sensor_type;location;lat;lon;timestamp;temperature;humidity
10123;DHT22;5101;49.038;8.710;2023-06-14T00:00:31;15.60;83.30
10123;DHT22;5101;49.038;8.710;2023-06-14T00:02:56;15.50;84.10
10123;DHT22;5101;49.038;8.710;2023-06-14T00:05:22;15.50;84.10
10123;DHT22;5101;49.038;8.710;2023-06-14T00:07:48;15.40;85.00
10123;DHT22;5101;49.038;8.710;2023-06-14T00:10:14;15.40;85.50
10123;DHT22;5101;49.038;8.710;2023-06-14T00:12:40;15.40;85.80
10123;DHT22;5101;49.038;8.710;2023-06-14T00:15:07;15.30;86.60
10123;DHT22;5101;49.038;8.710;2023-06-14T00:17:35;15.30;87.40
10123;DHT22;5101;49.038;8.710;2023-06-14T00:20:03;15.20;88.00
10123;DHT22;5101;49.038;8.710;2023-06-14T00:22:30;15.20;88.20
10123;DHT22;5101;49.038;8.710;2023-06-14T00:24:56;15.20;88.10
10123;DHT22;5101;49.038;8.710;2023-06-14T00:27:21;15.10;88.30
10123;DHT22;5101;49.038;8.710;2023-06-14T00:29:47;15.10;88.80
10123;DHT22;5101;49.038;8.710;2023-06-14T00:32:12;15.10;89.60
10123;DHT22;5101;49.038;8.710;2023-06-14T00:34:38;15.00;90.00
10123;DHT22;5101;49.038;8.710;2023-06-14T00:37:03;15.00;90.00
10123;DHT22;5101;49.038;8.710;2023-06-14T00:39:29;15.00;90.10
10123;DHT22;5101;49.038;8.710;2023-06-14T00:41:55;14.90;90.20
10123;DHT22;5101;49.038;8.710;2023-06-14T00:44:20;14.90;90.20
10123;DHT22;5101;49.038;8.710;2023-06-14T00:46:47;14.90;90.20
10123;DHT22;5101;49.038;8.710;2023-06-14T00:49:14;14.80;90.20
10123;DHT22;5101;49.038;8.710;2023-06-14T00:51:43;14.80;90.40
10123;DHT22;5101;49.038;8.710;2023-06-14T00:54:09;14.80;90.50
10123;DHT22;5101;49.038;8.710;2023-06-14T00:56:36;14.80;91.00
10123;DHT22;5101;49.038;8.710;2023-06-14T00:59:03;14.70;91.20
10123;DHT22;5101;49.038;8.710;2023-06-14T01:01:29;14.70;91.20
10123;DHT22;5101;49.038;8.710;2023-06-14T01:03:58;14.60;91.40
10123;DHT22;5101;49.038;8.710;2023-06-14T01:06:33;14.60;91.50
10123;DHT22;5101;49.038;8.710;2023-06-14T01:09:10;14.60;91.60
10123;DHT22;5101;49.038;8.710;2023-06-14T01:14:32;14.50;91.30
10123;DHT22;5101;49.038;8.710;2023-06-14T01:16:59;14.50;91.50
10123;DHT22;5101;49.038;8.710;2023-06-14T01:19:26;14.40;91.50
10123;DHT22;5101;49.038;8.710;2023-06-14T01:21:55;14.40;91.50
10123;DHT22;5101;49.038;8.710;2023-06-14T01:24:20;14.40;91.60
10123;DHT22;5101;49.038;8.710;2023-06-14T01:26:48;14.40;91.80
10123;DHT22;5101;49.038;8.710;2023-06-14T01:29:17;14.40;92.20
10123;DHT22;5101;49.038;8.710;2023-06-14T01:31:43;14.30;92.40
10123;DHT22;5101;49.038;8.710;2023-06-14T01:34:09;14.30;92.50
10123;DHT22;5101;49.038;8.710;2023-06-14T01:36:36;14.30;92.60
10123;DHT22;5101;49.038;8.710;2023-06-14T01:39:06;14.30;92.80
10123;DHT22;5101;49.038;8.710;2023-06-14T01:41:33;14.20;92.90
10123;DHT22;5101;49.038;8.710;2023-06-14T01:44:00;14.20;93.20
10123;DHT22;5101;49.038;8.710;2023-06-14T01:46:26;14.20;93.20
10123;DHT22;5101;49.038;8.710;2023-06-14T01:48:51;14.10;93.60
10123;DHT22;5101;49.038;8.710;2023-06-14T01:51:17;14.10;93.80
10123;DHT22;5101;49.038;8.710;2023-06-14T01:53:42;14.10;94.00
10123;DHT22;5101;49.038;8.710;2023-06-14T01:56:08;14.10;94.10
10123;DHT22;5101;49.038;8.710;2023-06-14T01:58:33;14.10;94.30
10123;DHT22;5101;49.038;8.710;2023-06-14T02:00:59;14.00;94.50
10123;DHT22;5101;49.038;8.710;2023-06-14T02:03:26;14.00;94.50
10123;DHT22;5101;49.038;8.710;2023-06-14T02:05:52;14.00;94.50
10123;DHT22;5101;49.038;8.710;2023-06-14T02:08:17;13.90;94.40
10123;DHT22;5101;49.038;8.710;2023-06-14T02:10:43;14.00;94.40
10123;DHT22;5101;49.038;8.710;2023-06-14T02:13:09;13.90;94.40
10123;DHT22;5101;49.038;8.710;2023-06-14T02:15:34;13.90;94.50
10123;DHT22;5101;49.038;8.710;2023-06-14T02:18:01;13.90;94.70
10123;DHT22;5101;49.038;8.710;2023-06-14T02:20:27;13.90;94.90
10123;DHT22;5101;49.038;8.710;2023-06-14T02:22:53;13.80;94.80
10123;DHT22;5101;49.038;8.710;2023-06-14T02:25:19;13.80;94.80
10123;DHT22;5101;49.038;8.710;2023-06-14T02:27:44;13.80;94.70
10123;DHT22;5101;49.038;8.710;2023-06-14T02:30:10;13.80;94.90
10123;DHT22;5101;49.038;8.710;2023-06-14T02:32:36;13.70;95.10
10123;DHT22;5101;49.038;8.710;2023-06-14T02:35:02;13.70;95.30
10123;DHT22;5101;49.038;8.710;2023-06-14T02:37:28;13.70;95.30
10123;DHT22;5101;49.038;8.710;2023-06-14T02:39:54;13.70;95.40
10123;DHT22;5101;49.038;8.710;2023-06-14T02:42:20;13.70;95.40
10123;DHT22;5101;49.038;8.710;2023-06-14T02:44:45;13.60;95.40
10123;DHT22;5101;49.038;8.710;2023-06-14T02:47:12;13.60;95.60
10123;DHT22;5101;49.038;8.710;2023-06-14T02:49:37;13.60;95.70
10123;DHT22;5101;49.038;8.710;2023-06-14T02:52:03;13.60;95.60
10123;DHT22;5101;49.038;8.710;2023-06-14T02:54:29;13.60;95.60
10123;DHT22;5101;49.038;8.710;2023-06-14T02:56:54;13.50;95.70
10123;DHT22;5101;49.038;8.710;2023-06-14T02:59:20;13.50;95.70
10123;DHT22;5101;49.038;8.710;2023-06-14T03:01:47;13.50;95.70
10123;DHT22;5101;49.038;8.710;2023-06-14T03:04:12;13.50;95.60
10123;DHT22;5101;49.038;8.710;2023-06-14T03:06:38;13.50;95.60
10123;DHT22;5101;49.038;8.710;2023-06-14T03:09:05;13.40;95.60
10123;DHT22;5101;49.038;8.710;2023-06-14T03:11:31;13.40;95.70
10123;DHT22;5101;49.038;8.710;2023-06-14T03:13:57;13.40;95.60
10123;DHT22;5101;49.038;8.710;2023-06-14T03:16:22;13.40;95.60
10123;DHT22;5101;49.038;8.710;2023-06-14T03:18:51;13.40;95.80
10123;DHT22;5101;49.038;8.710;2023-06-14T03:21:17;13.30;95.70
10123;DHT22;5101;49.038;8.710;2023-06-14T03:23:43;13.30;95.50
10123;DHT22;5101;49.038;8.710;2023-06-14T03:26:09;13.20;95.50
10123;DHT22;5101;49.038;8.710;2023-06-14T03:28:39;13.20;95.80
10123;DHT22;5101;49.038;8.710;2023-06-14T03:31:05;13.20;96.10
10123;DHT22;5101;49.038;8.710;2023-06-14T03:33:30;13.20;96.60
10123;DHT22;5101;49.038;8.710;2023-06-14T03:35:56;13.20;96.90
10123;DHT22;5101;49.038;8.710;2023-06-14T03:38:22;13.20;97.10
10123;DHT22;5101;49.038;8.710;2023-06-14T03:40:47;13.20;97.20
10123;DHT22;5101;49.038;8.710;2023-06-14T03:43:13;13.10;97.40
10123;DHT22;5101;49.038;8.710;2023-06-14T03:45:38;13.10;97.60
10123;DHT22;5101;49.038;8.710;2023-06-14T03:48:04;13.10;97.90
10123;DHT22;5101;49.038;8.710;2023-06-14T03:50:32;13.10;98.10
10123;DHT22;5101;49.038;8.710;2023-06-14T03:52:57;13.10;97.90
10123;DHT22;5101;49.038;8.710;2023-06-14T03:55:23;13.00;97.70
10123;DHT22;5101;49.038;8.710;2023-06-14T03:57:51;13.10;97.60
10123;DHT22;5101;49.038;8.710;2023-06-14T04:00:17;13.00;97.50
10123;DHT22;5101;49.038;8.710;2023-06-14T04:02:43;13.00;97.40
10123;DHT22;5101;49.038;8.710;2023-06-14T04:05:09;13.10;98.40
10123;DHT22;5101;49.038;8.710;2023-06-14T04:07:35;13.00;97.90
10123;DHT22;5101;49.038;8.710;2023-06-14T04:10:06;13.00;97.80
10123;DHT22;5101;49.038;8.710;2023-06-14T04:12:32;13.00;97.80
10123;DHT22;5101;49.038;8.710;2023-06-14T04:14:57;13.00;97.90
10123;DHT22;5101;49.038;8.710;2023-06-14T04:17:23;13.10;98.00
10123;DHT22;5101;49.038;8.710;2023-06-14T04:19:48;13.00;98.00
10123;DHT22;5101;49.038;8.710;2023-06-14T04:22:14;13.00;98.10
10123;DHT22;5101;49.038;8.710;2023-06-14T04:24:39;13.00;98.10
10123;DHT22;5101;49.038;8.710;2023-06-14T04:27:07;13.00;98.30
10123;DHT22;5101;49.038;8.710;2023-06-14T04:29:33;13.00;98.30
10123;DHT22;5101;49.038;8.710;2023-06-14T04:31:58;13.00;98.40
10123;DHT22;5101;49.038;8.710;2023-06-14T04:34:26;13.00;98.60
10123;DHT22;5101;49.038;8.710;2023-06-14T04:36:55;13.10;98.70
10123;DHT22;5101;49.038;8.710;2023-06-14T04:39:22;13.10;98.90
10123;DHT22;5101;49.038;8.710;2023-06-14T04:41:48;13.10;98.90
10123;DHT22;5101;49.038;8.710;2023-06-14T04:44:18;13.10;98.90
10123;DHT22;5101;49.038;8.710;2023-06-14T04:46:45;13.20;98.90
10123;DHT22;5101;49.038;8.710;2023-06-14T04:49:15;13.20;98.90
10123;DHT22;5101;49.038;8.710;2023-06-14T04:51:41;13.30;98.80
10123;DHT22;5101;49.038;8.710;2023-06-14T04:54:08;13.30;98.60
10123;DHT22;5101;49.038;8.710;2023-06-14T04:56:40;13.40;98.60
10123;DHT22;5101;49.038;8.710;2023-06-14T04:59:05;13.40;98.40
10123;DHT22;5101;49.038;8.710;2023-06-14T05:01:31;13.40;98.40
10123;DHT22;5101;49.038;8.710;2023-06-14T05:03:57;13.50;98.40
10123;DHT22;5101;49.038;8.710;2023-06-14T05:06:23;13.50;98.50
10123;DHT22;5101;49.038;8.710;2023-06-14T05:08:49;13.60;98.70
10123;DHT22;5101;49.038;8.710;2023-06-14T05:11:14;13.70;98.80
10123;DHT22;5101;49.038;8.710;2023-06-14T05:13:42;13.80;98.70
10123;DHT22;5101;49.038;8.710;2023-06-14T05:16:07;14.00;98.40
10123;DHT22;5101;49.038;8.710;2023-06-14T05:18:33;14.10;97.60
10123;DHT22;5101;49.038;8.710;2023-06-14T05:21:00;14.30;96.60
10123;DHT22;5101;49.038;8.710;2023-06-14T05:23:26;14.40;96.40
10123;DHT22;5101;49.038;8.710;2023-06-14T05:25:51;14.60;95.60
10123;DHT22;5101;49.038;8.710;2023-06-14T05:28:17;14.80;94.60
10123;DHT22;5101;49.038;8.710;2023-06-14T05:30:43;15.00;94.00
10123;DHT22;5101;49.038;8.710;2023-06-14T05:33:09;15.10;93.40
10123;DHT22;5101;49.038;8.710;2023-06-14T05:35:34;15.30;92.80
10123;DHT22;5101;49.038;8.710;2023-06-14T05:38:00;15.50;92.40
10123;DHT22;5101;49.038;8.710;2023-06-14T05:40:25;15.60;92.20
10123;DHT22;5101;49.038;8.710;2023-06-14T05:42:51;15.70;91.90
10123;DHT22;5101;49.038;8.710;2023-06-14T05:45:16;15.90;91.70
10123;DHT22;5101;49.038;8.710;2023-06-14T05:47:42;16.00;91.50
10123;DHT22;5101;49.038;8.710;2023-06-14T05:50:08;16.10;91.10
10123;DHT22;5101;49.038;8.710;2023-06-14T05:52:34;16.30;90.50
10123;DHT22;5101;49.038;8.710;2023-06-14T05:55:00;16.40;90.30
10123;DHT22;5101;49.038;8.710;2023-06-14T05:57:26;16.50;89.40
10123;DHT22;5101;49.038;8.710;2023-06-14T05:59:52;16.70;87.90
10123;DHT22;5101;49.038;8.710;2023-06-14T06:02:17;16.90;86.70
10123;DHT22;5101;49.038;8.710;2023-06-14T06:04:43;17.00;85.70
10123;DHT22;5101;49.038;8.710;2023-06-14T06:07:08;17.20;84.70
10123;DHT22;5101;49.038;8.710;2023-06-14T06:09:34;17.50;83.90
10123;DHT22;5101;49.038;8.710;2023-06-14T06:11:59;17.80;83.20
10123;DHT22;5101;49.038;8.710;2023-06-14T06:14:25;18.00;81.80
10123;DHT22;5101;49.038;8.710;2023-06-14T06:16:50;18.40;79.30
10123;DHT22;5101;49.038;8.710;2023-06-14T06:19:18;18.70;77.30
10123;DHT22;5101;49.038;8.710;2023-06-14T06:21:43;19.00;74.90
10123;DHT22;5101;49.038;8.710;2023-06-14T06:24:09;19.30;73.20
10123;DHT22;5101;49.038;8.710;2023-06-14T06:26:34;19.50;70.80
10123;DHT22;5101;49.038;8.710;2023-06-14T06:29:00;19.70;69.80
10123;DHT22;5101;49.038;8.710;2023-06-14T06:31:25;20.00;68.30
10123;DHT22;5101;49.038;8.710;2023-06-14T06:33:53;20.30;67.40
10123;DHT22;5101;49.038;8.710;2023-06-14T06:36:19;20.60;66.70
10123;DHT22;5101;49.038;8.710;2023-06-14T06:38:45;20.90;65.30
10123;DHT22;5101;49.038;8.710;2023-06-14T06:41:11;21.10;63.30
10123;DHT22;5101;49.038;8.710;2023-06-14T06:43:36;21.30;62.20
10123;DHT22;5101;49.038;8.710;2023-06-14T06:46:02;21.40;60.50
10123;DHT22;5101;49.038;8.710;2023-06-14T06:48:27;21.40;60.00
10123;DHT22;5101;49.038;8.710;2023-06-14T06:50:54;21.50;58.90
10123;DHT22;5101;49.038;8.710;2023-06-14T06:53:19;21.60;58.90
10123;DHT22;5101;49.038;8.710;2023-06-14T06:55:45;21.80;58.70
10123;DHT22;5101;49.038;8.710;2023-06-14T06:58:11;22.10;58.30
10123;DHT22;5101;49.038;8.710;2023-06-14T07:00:37;22.40;57.60
10123;DHT22;5101;49.038;8.710;2023-06-14T07:03:02;22.70;55.80
10123;DHT22;5101;49.038;8.710;2023-06-14T07:05:29;22.90;54.40
10123;DHT22;5101;49.038;8.710;2023-06-14T07:07:55;23.10;53.40
10123;DHT22;5101;49.038;8.710;2023-06-14T07:10:21;23.40;52.50
10123;DHT22;5101;49.038;8.710;2023-06-14T07:12:46;23.50;51.50
10123;DHT22;5101;49.038;8.710;2023-06-14T07:15:12;23.60;49.20
10123;DHT22;5101;49.038;8.710;2023-06-14T07:17:37;23.50;48.30
10123;DHT22;5101;49.038;8.710;2023-06-14T07:20:04;23.60;48.80
10123;DHT22;5101;49.038;8.710;2023-06-14T07:22:40;23.90;48.70
10123;DHT22;5101;49.038;8.710;2023-06-14T07:25:07;24.10;47.40
10123;DHT22;5101;49.038;8.710;2023-06-14T07:27:33;24.10;45.50
10123;DHT22;5101;49.038;8.710;2023-06-14T07:29:59;24.10;45.00
10123;DHT22;5101;49.038;8.710;2023-06-14T07:32:24;24.40;45.70
10123;DHT22;5101;49.038;8.710;2023-06-14T07:34:50;24.50;45.00
10123;DHT22;5101;49.038;8.710;2023-06-14T07:37:15;24.70;44.80
10123;DHT22;5101;49.038;8.710;2023-06-14T07:39:42;24.70;43.10
10123;DHT22;5101;49.038;8.710;2023-06-14T07:42:07;24.80;41.90
10123;DHT22;5101;49.038;8.710;2023-06-14T07:44:33;24.90;42.50
10123;DHT22;5101;49.038;8.710;2023-06-14T07:46:58;25.00;42.70
10123;DHT22;5101;49.038;8.710;2023-06-14T07:49:25;25.00;42.10
10123;DHT22;5101;49.038;8.710;2023-06-14T07:51:51;25.10;42.50
10123;DHT22;5101;49.038;8.710;2023-06-14T07:54:16;25.30;41.40
10123;DHT22;5101;49.038;8.710;2023-06-14T07:56:42;25.30;39.80
10123;DHT22;5101;49.038;8.710;2023-06-14T07:59:08;25.40;39.00
10123;DHT22;5101;49.038;8.710;2023-06-14T08:01:34;25.50;39.30
10123;DHT22;5101;49.038;8.710;2023-06-14T08:04:00;25.30;38.80
10123;DHT22;5101;49.038;8.710;2023-06-14T08:06:26;25.30;38.80
10123;DHT22;5101;49.038;8.710;2023-06-14T08:08:52;25.50;38.40
10123;DHT22;5101;49.038;8.710;2023-06-14T08:11:17;25.60;37.30
10123;DHT22;5101;49.038;8.710;2023-06-14T08:13:43;25.50;36.90
10123;DHT22;5101;49.038;8.710;2023-06-14T08:16:08;25.30;36.90
10123;DHT22;5101;49.038;8.710;2023-06-14T08:18:34;25.40;37.80
10123;DHT22;5101;49.038;8.710;2023-06-14T08:20:59;25.40;37.30
10123;DHT22;5101;49.038;8.710;2023-06-14T08:23:25;25.40;37.30
10123;DHT22;5101;49.038;8.710;2023-06-14T08:25:51;25.40;36.50
10123;DHT22;5101;49.038;8.710;2023-06-14T08:28:16;25.40;36.70
10123;DHT22;5101;49.038;8.710;2023-06-14T08:30:42;25.50;36.70
10123;DHT22;5101;49.038;8.710;2023-06-14T08:33:08;25.40;36.50
10123;DHT22;5101;49.038;8.710;2023-06-14T08:35:33;25.20;36.60
10123;DHT22;5101;49.038;8.710;2023-06-14T08:38:02;25.40;37.50
10123;DHT22;5101;49.038;8.710;2023-06-14T08:40:30;25.70;39.50
10123;DHT22;5101;49.038;8.710;2023-06-14T08:42:56;26.00;38.30
10123;DHT22;5101;49.038;8.710;2023-06-14T08:45:22;26.20;38.30
10123;DHT22;5101;49.038;8.710;2023-06-14T08:47:49;26.20;37.00
10123;DHT22;5101;49.038;8.710;2023-06-14T08:50:20;26.30;37.00
10123;DHT22;5101;49.038;8.710;2023-06-14T08:52:46;26.40;36.30
10123;DHT22;5101;49.038;8.710;2023-06-14T08:55:16;26.40;36.20
10123;DHT22;5101;49.038;8.710;2023-06-14T08:57:44;26.60;35.90
10123;DHT22;5101;49.038;8.710;2023-06-14T09:00:12;26.50;35.60
10123;DHT22;5101;49.038;8.710;2023-06-14T09:02:39;26.40;35.60
10123;DHT22;5101;49.038;8.710;2023-06-14T09:05:09;26.60;35.80
10123;DHT22;5101;49.038;8.710;2023-06-14T09:07:37;26.70;35.30
10123;DHT22;5101;49.038;8.710;2023-06-14T09:10:13;26.50;35.20
10123;DHT22;5101;49.038;8.710;2023-06-14T09:12:40;26.60;35.40
10123;DHT22;5101;49.038;8.710;2023-06-14T09:15:06;26.70;35.10
10123;DHT22;5101;49.038;8.710;2023-06-14T09:17:37;26.70;34.50
10123;DHT22;5101;49.038;8.710;2023-06-14T09:20:04;26.90;35.00
10123;DHT22;5101;49.038;8.710;2023-06-14T09:22:37;26.90;35.00
10123;DHT22;5101;49.038;8.710;2023-06-14T09:25:03;26.90;33.90
10123;DHT22;5101;49.038;8.710;2023-06-14T09:27:30;27.00;33.90
10123;DHT22;5101;49.038;8.710;2023-06-14T09:29:55;26.80;34.30
10123;DHT22;5101;49.038;8.710;2023-06-14T09:32:21;26.70;33.20
10123;DHT22;5101;49.038;8.710;2023-06-14T09:34:47;26.80;33.70
10123;DHT22;5101;49.038;8.710;2023-06-14T09:37:25;26.90;32.90
10123;DHT22;5101;49.038;8.710;2023-06-14T09:39:51;26.80;32.50
10123;DHT22;5101;49.038;8.710;2023-06-14T09:42:18;26.80;33.10
10123;DHT22;5101;49.038;8.710;2023-06-14T09:44:47;26.90;32.90
10123;DHT22;5101;49.038;8.710;2023-06-14T09:47:13;26.80;32.70
10123;DHT22;5101;49.038;8.710;2023-06-14T09:49:39;27.00;33.10
10123;DHT22;5101;49.038;8.710;2023-06-14T09:52:07;27.10;32.20
10123;DHT22;5101;49.038;8.710;2023-06-14T09:54:40;27.20;32.10
10123;DHT22;5101;49.038;8.710;2023-06-14T09:57:08;27.10;31.90
10123;DHT22;5101;49.038;8.710;2023-06-14T09:59:36;26.70;32.00
10123;DHT22;5101;49.038;8.710;2023-06-14T10:02:09;26.70;32.50
10123;DHT22;5101;49.038;8.710;2023-06-14T10:04:36;26.80;32.20
10123;DHT22;5101;49.038;8.710;2023-06-14T10:07:03;26.70;31.70
10123;DHT22;5101;49.038;8.710;2023-06-14T10:09:29;26.70;31.10
10123;DHT22;5101;49.038;8.710;2023-06-14T10:11:55;26.70;31.40
10123;DHT22;5101;49.038;8.710;2023-06-14T10:14:21;26.90;31.30
10123;DHT22;5101;49.038;8.710;2023-06-14T10:17:02;27.00;31.70
10123;DHT22;5101;49.038;8.710;2023-06-14T10:19:48;27.20;31.70
10123;DHT22;5101;49.038;8.710;2023-06-14T10:22:21;27.30;30.90
10123;DHT22;5101;49.038;8.710;2023-06-14T10:24:50;27.50;30.60
10123;DHT22;5101;49.038;8.710;2023-06-14T10:27:16;27.50;30.00
10123;DHT22;5101;49.038;8.710;2023-06-14T10:32:24;27.60;29.80
10123;DHT22;5101;49.038;8.710;2023-06-14T10:34:58;27.60;30.20
10123;DHT22;5101;49.038;8.710;2023-06-14T10:37:24;27.40;30.00
10123;DHT22;5101;49.038;8.710;2023-06-14T10:39:50;27.40;29.60
10123;DHT22;5101;49.038;8.710;2023-06-14T10:42:16;27.40;29.90
10123;DHT22;5101;49.038;8.710;2023-06-14T10:44:54;27.40;29.20
10123;DHT22;5101;49.038;8.710;2023-06-14T10:49:53;27.60;29.80
10123;DHT22;5101;49.038;8.710;2023-06-14T10:52:25;27.60;29.90
10123;DHT22;5101;49.038;8.710;2023-06-14T10:55:03;27.40;29.60
10123;DHT22;5101;49.038;8.710;2023-06-14T10:57:35;27.50;29.80
10123;DHT22;5101;49.038;8.710;2023-06-14T11:00:05;27.50;30.40
10123;DHT22;5101;49.038;8.710;2023-06-14T11:05:54;27.80;29.60
10123;DHT22;5101;49.038;8.710;2023-06-14T11:08:33;28.00;29.70
10123;DHT22;5101;49.038;8.710;2023-06-14T11:11:11;27.90;29.40
10123;DHT22;5101;49.038;8.710;2023-06-14T11:13:39;27.50;29.60
10123;DHT22;5101;49.038;8.710;2023-06-14T11:16:13;27.50;30.00
10123;DHT22;5101;49.038;8.710;2023-06-14T11:18:39;27.60;29.80
10123;DHT22;5101;49.038;8.710;2023-06-14T11:21:05;27.60;29.80
10123;DHT22;5101;49.038;8.710;2023-06-14T11:23:31;27.60;29.30
10123;DHT22;5101;49.038;8.710;2023-06-14T11:25:56;27.70;29.30
10123;DHT22;5101;49.038;8.710;2023-06-14T11:28:22;27.70;29.00
10123;DHT22;5101;49.038;8.710;2023-06-14T11:30:59;27.40;28.80
10123;DHT22;5101;49.038;8.710;2023-06-14T11:33:24;27.50;29.20
10123;DHT22;5101;49.038;8.710;2023-06-14T11:35:51;27.70;29.30
10123;DHT22;5101;49.038;8.710;2023-06-14T11:38:16;27.80;29.40
10123;DHT22;5101;49.038;8.710;2023-06-14T11:40:42;27.90;28.60
10123;DHT22;5101;49.038;8.710;2023-06-14T11:43:07;27.80;28.40
10123;DHT22;5101;49.038;8.710;2023-06-14T11:45:33;28.00;29.00
10123;DHT22;5101;49.038;8.710;2023-06-14T11:47:59;28.20;28.70
10123;DHT22;5101;49.038;8.710;2023-06-14T11:50:25;28.10;28.50
10123;DHT22;5101;49.038;8.710;2023-06-14T11:52:56;27.70;28.70
10123;DHT22;5101;49.038;8.710;2023-06-14T11:55:22;27.70;29.30
10123;DHT22;5101;49.038;8.710;2023-06-14T11:57:48;27.80;29.40
10123;DHT22;5101;49.038;8.710;2023-06-14T12:00:15;27.90;28.70
10123;DHT22;5101;49.038;8.710;2023-06-14T12:02:41;27.80;28.70
10123;DHT22;5101;49.038;8.710;2023-06-14T12:05:08;27.80;28.80
10123;DHT22;5101;49.038;8.710;2023-06-14T12:07:36;27.70;28.60
10123;DHT22;5101;49.038;8.710;2023-06-14T12:12:28;27.50;28.90
10123;DHT22;5101;49.038;8.710;2023-06-14T12:14:55;27.60;29.20
10123;DHT22;5101;49.038;8.710;2023-06-14T12:17:22;27.60;28.90
10123;DHT22;5101;49.038;8.710;2023-06-14T12:19:49;27.60;29.30
10123;DHT22;5101;49.038;8.710;2023-06-14T12:22:15;27.60;28.90
10123;DHT22;5101;49.038;8.710;2023-06-14T12:24:45;27.40;28.60
10123;DHT22;5101;49.038;8.710;2023-06-14T12:27:10;27.30;28.70
10123;DHT22;5101;49.038;8.710;2023-06-14T12:29:41;27.10;29.00
10123;DHT22;5101;49.038;8.710;2023-06-14T12:32:09;27.10;29.00
10123;DHT22;5101;49.038;8.710;2023-06-14T12:34:35;27.30;29.10
10123;DHT22;5101;49.038;8.710;2023-06-14T12:37:01;27.40;29.20
10123;DHT22;5101;49.038;8.710;2023-06-14T12:39:26;27.60;29.30
10123;DHT22;5101;49.038;8.710;2023-06-14T12:41:52;27.70;29.30
10123;DHT22;5101;49.038;8.710;2023-06-14T12:44:17;27.50;29.20
10123;DHT22;5101;49.038;8.710;2023-06-14T12:46:43;27.50;28.50
10123;DHT22;5101;49.038;8.710;2023-06-14T12:49:12;27.40;28.00
10123;DHT22;5101;49.038;8.710;2023-06-14T12:51:38;27.40;27.50
10123;DHT22;5101;49.038;8.710;2023-06-14T12:54:04;27.30;27.90
10123;DHT22;5101;49.038;8.710;2023-06-14T12:56:30;27.50;28.20
10123;DHT22;5101;49.038;8.710;2023-06-14T12:58:56;27.60;28.70
10123;DHT22;5101;49.038;8.710;2023-06-14T13:01:21;27.60;28.60
10123;DHT22;5101;49.038;8.710;2023-06-14T13:03:47;27.60;29.30
10123;DHT22;5101;49.038;8.710;2023-06-14T13:06:13;27.60;28.80
10123;DHT22;5101;49.038;8.710;2023-06-14T13:08:39;27.40;28.70
10123;DHT22;5101;49.038;8.710;2023-06-14T13:11:04;27.50;28.60
10123;DHT22;5101;49.038;8.710;2023-06-14T13:13:30;27.40;28.50
10123;DHT22;5101;49.038;8.710;2023-06-14T13:15:55;27.40;28.30
10123;DHT22;5101;49.038;8.710;2023-06-14T13:18:21;27.50;27.70
10123;DHT22;5101;49.038;8.710;2023-06-14T13:20:47;27.50;27.90
10123;DHT22;5101;49.038;8.710;2023-06-14T13:23:13;27.50;27.90
10123;DHT22;5101;49.038;8.710;2023-06-14T13:25:39;27.50;28.10
10123;DHT22;5101;49.038;8.710;2023-06-14T13:28:05;27.40;27.50
10123;DHT22;5101;49.038;8.710;2023-06-14T13:30:32;27.40;27.70
10123;DHT22;5101;49.038;8.710;2023-06-14T13:32:58;27.40;28.40
10123;DHT22;5101;49.038;8.710;2023-06-14T13:35:24;27.30;27.70
10123;DHT22;5101;49.038;8.710;2023-06-14T13:37:50;27.30;28.10
10123;DHT22;5101;49.038;8.710;2023-06-14T13:40:15;27.20;27.80
10123;DHT22;5101;49.038;8.710;2023-06-14T13:42:41;26.80;27.70
10123;DHT22;5101;49.038;8.710;2023-06-14T13:45:08;26.70;27.80
10123;DHT22;5101;49.038;8.710;2023-06-14T13:47:34;26.70;28.10
10123;DHT22;5101;49.038;8.710;2023-06-14T13:49:59;26.70;28.20
10123;DHT22;5101;49.038;8.710;2023-06-14T13:52:25;26.60;28.70
10123;DHT22;5101;49.038;8.710;2023-06-14T13:54:51;26.60;29.00
10123;DHT22;5101;49.038;8.710;2023-06-14T13:57:17;26.60;28.70
10123;DHT22;5101;49.038;8.710;2023-06-14T13:59:43;26.70;28.80
10123;DHT22;5101;49.038;8.710;2023-06-14T14:02:10;26.70;28.80
10123;DHT22;5101;49.038;8.710;2023-06-14T14:04:35;26.80;28.80
10123;DHT22;5101;49.038;8.710;2023-06-14T14:07:02;26.80;28.80
10123;DHT22;5101;49.038;8.710;2023-06-14T14:09:28;26.80;28.80
10123;DHT22;5101;49.038;8.710;2023-06-14T14:11:54;26.70;28.70
10123;DHT22;5101;49.038;8.710;2023-06-14T14:14:19;26.60;28.30
10123;DHT22;5101;49.038;8.710;2023-06-14T14:16:45;26.70;28.80
10123;DHT22;5101;49.038;8.710;2023-06-14T14:19:11;26.70;28.80
10123;DHT22;5101;49.038;8.710;2023-06-14T14:21:37;26.80;28.80
10123;DHT22;5101;49.038;8.710;2023-06-14T14:24:03;26.90;28.90
10123;DHT22;5101;49.038;8.710;2023-06-14T14:26:28;26.90;28.80
10123;DHT22;5101;49.038;8.710;2023-06-14T14:28:54;26.90;29.40
10123;DHT22;5101;49.038;8.710;2023-06-14T14:31:19;26.80;29.30
10123;DHT22;5101;49.038;8.710;2023-06-14T14:33:45;26.80;29.50
10123;DHT22;5101;49.038;8.710;2023-06-14T14:36:10;26.80;29.90
10123;DHT22;5101;49.038;8.710;2023-06-14T14:38:36;26.90;29.70
10123;DHT22;5101;49.038;8.710;2023-06-14T14:41:01;26.80;29.10
10123;DHT22;5101;49.038;8.710;2023-06-14T14:43:27;26.90;29.00
10123;DHT22;5101;49.038;8.710;2023-06-14T14:45:56;26.70;28.50
10123;DHT22;5101;49.038;8.710;2023-06-14T14:48:21;26.70;28.80
10123;DHT22;5101;49.038;8.710;2023-06-14T14:50:47;26.70;28.80
10123;DHT22;5101;49.038;8.710;2023-06-14T14:53:13;26.80;28.80
10123;DHT22;5101;49.038;8.710;2023-06-14T14:55:38;26.70;28.80
10123;DHT22;5101;49.038;8.710;2023-06-14T14:58:06;26.70;29.30
10123;DHT22;5101;49.038;8.710;2023-06-14T15:00:32;26.70;29.50
10123;DHT22;5101;49.038;8.710;2023-06-14T15:02:57;26.80;29.50
10123;DHT22;5101;49.038;8.710;2023-06-14T15:05:23;26.80;29.30
10123;DHT22;5101;49.038;8.710;2023-06-14T15:07:48;26.70;29.10
10123;DHT22;5101;49.038;8.710;2023-06-14T15:10:14;26.60;29.30
10123;DHT22;5101;49.038;8.710;2023-06-14T15:12:39;26.60;29.40
10123;DHT22;5101;49.038;8.710;2023-06-14T15:15:05;26.50;29.20
10123;DHT22;5101;49.038;8.710;2023-06-14T15:17:31;26.50;28.90
10123;DHT22;5101;49.038;8.710;2023-06-14T15:19:56;26.50;28.60
10123;DHT22;5101;49.038;8.710;2023-06-14T15:22:22;26.50;28.60
10123;DHT22;5101;49.038;8.710;2023-06-14T15:24:47;26.40;28.60
10123;DHT22;5101;49.038;8.710;2023-06-14T15:27:13;26.40;28.60
10123;DHT22;5101;49.038;8.710;2023-06-14T15:29:42;26.20;28.30
10123;DHT22;5101;49.038;8.710;2023-06-14T15:32:08;26.20;28.40
10123;DHT22;5101;49.038;8.710;2023-06-14T15:34:34;26.30;28.50
10123;DHT22;5101;49.038;8.710;2023-06-14T15:37:00;26.30;28.50
10123;DHT22;5101;49.038;8.710;2023-06-14T15:39:28;26.30;28.50
10123;DHT22;5101;49.038;8.710;2023-06-14T15:41:55;26.20;29.30
10123;DHT22;5101;49.038;8.710;2023-06-14T15:44:21;26.20;29.90
10123;DHT22;5101;49.038;8.710;2023-06-14T15:46:46;26.20;29.40
10123;DHT22;5101;49.038;8.710;2023-06-14T15:49:13;26.10;29.50
10123;DHT22;5101;49.038;8.710;2023-06-14T15:51:39;26.10;29.50
10123;DHT22;5101;49.038;8.710;2023-06-14T15:54:04;26.10;29.60